sensor_id;sensor_type;location;lat;lon;timestamp;P1;durP1;ratioP1;P2;durP2;ratioP2
19235;SDS011;9752;54.270;12.470;2023-05-19T00:00:38;27.03;;;15.00;;
19235;SDS011;9752;54.270;12.470;2023-05-19T00:05:41;25.30;;;14.90;;
19235;SDS011;9752;54.270;12.470;2023-05-19T00:10:45;30.27;;;14.83;;
19235;SDS011;9752;54.270;12.470;2023-05-19T00:15:48;23.37;;;14.53;;
19235;SDS011;9752;54.270;12.470;2023-05-19T00:20:51;23.33;;;15.23;;
19235;SDS011;9752;54.270;12.470;2023-05-19T00:25:52;20.30;;;14.80;;
19235;SDS011;9752;54.270;12.470;2023-05-19T00:30:55;22.67;;;14.37;;
19235;SDS011;9752;54.270;12.470;2023-05-19T00:35:57;26.47;;;15.80;;
19235;SDS011;9752;54.270;12.470;2023-05-19T00:40:59;32.17;;;19.30;;
19235;SDS011;9752;54.270;12.470;2023-05-19T00:46:03;29.20;;;17.10;;
19235;SDS011;9752;54.270;12.470;2023-05-19T00:51:06;43.53;;;19.50;;
19235;SDS011;9752;54.270;12.470;2023-05-19T00:56:08;24.23;;;18.13;;
19235;SDS011;9752;54.270;12.470;2023-05-19T01:01:11;18.93;;;14.87;;
19235;SDS011;9752;54.270;12.470;2023-05-19T01:06:13;29.80;;;16.93;;
19235;SDS011;9752;54.270;12.470;2023-05-19T01:11:18;26.33;;;16.20;;
19235;SDS011;9752;54.270;12.470;2023-05-19T01:16:23;18.63;;;13.83;;
19235;SDS011;9752;54.270;12.470;2023-05-19T01:21:48;25.03;;;15.07;;
19235;SDS011;9752;54.270;12.470;2023-05-19T01:27:06;23.57;;;14.07;;
19235;SDS011;9752;54.270;12.470;2023-05-19T01:32:19;29.13;;;16.93;;
19235;SDS011;9752;54.270;12.470;2023-05-19T01:37:24;47.53;;;20.80;;
19235;SDS011;9752;54.270;12.470;2023-05-19T01:42:27;34.27;;;17.27;;
19235;SDS011;9752;54.270;12.470;2023-05-19T01:47:41;23.07;;;15.37;;
19235;SDS011;9752;54.270;12.470;2023-05-19T01:52:44;29.93;;;16.33;;
19235;SDS011;9752;54.270;12.470;2023-05-19T01:57:47;24.23;;;15.73;;
19235;SDS011;9752;54.270;12.470;2023-05-19T02:03:03;30.53;;;17.60;;
19235;SDS011;9752;54.270;12.470;2023-05-19T02:08:19;21.80;;;15.13;;
19235;SDS011;9752;54.270;12.470;2023-05-19T02:13:26;24.03;;;13.77;;
19235;SDS011;9752;54.270;12.470;2023-05-19T02:18:35;21.60;;;14.37;;
19235;SDS011;9752;54.270;12.470;2023-05-19T02:23:36;22.10;;;16.17;;
19235;SDS011;9752;54.270;12.470;2023-05-19T02:28:38;37.20;;;18.47;;
19235;SDS011;9752;54.270;12.470;2023-05-19T02:33:41;32.20;;;16.67;;
19235;SDS011;9752;54.270;12.470;2023-05-19T02:38:43;24.87;;;17.00;;
19235;SDS011;9752;54.270;12.470;2023-05-19T02:43:45;31.67;;;17.37;;
19235;SDS011;9752;54.270;12.470;2023-05-19T02:48:48;26.93;;;15.97;;
19235;SDS011;9752;54.270;12.470;2023-05-19T02:53:50;25.13;;;15.87;;
19235;SDS011;9752;54.270;12.470;2023-05-19T02:58:52;27.80;;;17.40;;
19235;SDS011;9752;54.270;12.470;2023-05-19T03:03:55;27.60;;;16.07;;
19235;SDS011;9752;54.270;12.470;2023-05-19T03:08:57;21.47;;;15.07;;
19235;SDS011;9752;54.270;12.470;2023-05-19T03:13:59;30.17;;;17.97;;
19235;SDS011;9752;54.270;12.470;2023-05-19T03:19:02;34.47;;;18.10;;
19235;SDS011;9752;54.270;12.470;2023-05-19T03:24:04;24.93;;;16.57;;
19235;SDS011;9752;54.270;12.470;2023-05-19T03:29:06;25.40;;;17.13;;
19235;SDS011;9752;54.270;12.470;2023-05-19T03:34:11;36.27;;;19.23;;
19235;SDS011;9752;54.270;12.470;2023-05-19T03:39:13;33.40;;;19.17;;
19235;SDS011;9752;54.270;12.470;2023-05-19T03:44:15;33.30;;;18.17;;
19235;SDS011;9752;54.270;12.470;2023-05-19T03:49:19;35.20;;;17.93;;
19235;SDS011;9752;54.270;12.470;2023-05-19T03:54:39;36.80;;;18.63;;
19235;SDS011;9752;54.270;12.470;2023-05-19T03:59:41;29.57;;;18.30;;
19235;SDS011;9752;54.270;12.470;2023-05-19T04:04:44;31.83;;;18.07;;
19235;SDS011;9752;54.270;12.470;2023-05-19T04:09:46;34.97;;;18.27;;
19235;SDS011;9752;54.270;12.470;2023-05-19T04:14:48;41.00;;;18.13;;
19235;SDS011;9752;54.270;12.470;2023-05-19T04:19:51;25.47;;;15.90;;
19235;SDS011;9752;54.270;12.470;2023-05-19T04:24:53;32.73;;;16.93;;
19235;SDS011;9752;54.270;12.470;2023-05-19T04:29:55;29.80;;;16.93;;
19235;SDS011;9752;54.270;12.470;2023-05-19T04:34:58;28.60;;;17.30;;
19235;SDS011;9752;54.270;12.470;2023-05-19T04:40:02;33.00;;;16.43;;
19235;SDS011;9752;54.270;12.470;2023-05-19T04:45:06;35.57;;;17.50;;
19235;SDS011;9752;54.270;12.470;2023-05-19T04:50:13;27.60;;;16.33;;
19235;SDS011;9752;54.270;12.470;2023-05-19T04:55:16;36.53;;;20.10;;
19235;SDS011;9752;54.270;12.470;2023-05-19T05:00:19;26.80;;;17.03;;
19235;SDS011;9752;54.270;12.470;2023-05-19T05:05:49;26.70;;;18.60;;
19235;SDS011;9752;54.270;12.470;2023-05-19T05:10:51;27.03;;;16.03;;
19235;SDS011;9752;54.270;12.470;2023-05-19T05:15:55;26.87;;;15.90;;
19235;SDS011;9752;54.270;12.470;2023-05-19T05:20:59;25.37;;;15.70;;
19235;SDS011;9752;54.270;12.470;2023-05-19T05:26:03;23.50;;;13.90;;
19235;SDS011;9752;54.270;12.470;2023-05-19T05:31:10;28.37;;;14.73;;
19235;SDS011;9752;54.270;12.470;2023-05-19T05:36:14;25.17;;;13.13;;
19235;SDS011;9752;54.270;12.470;2023-05-19T05:41:16;27.57;;;13.10;;
19235;SDS011;9752;54.270;12.470;2023-05-19T05:46:19;21.73;;;14.53;;
19235;SDS011;9752;54.270;12.470;2023-05-19T05:51:23;17.43;;;11.80;;
19235;SDS011;9752;54.270;12.470;2023-05-19T05:56:26;18.50;;;10.53;;
19235;SDS011;9752;54.270;12.470;2023-05-19T06:01:28;12.27;;;10.10;;
19235;SDS011;9752;54.270;12.470;2023-05-19T06:06:32;24.33;;;12.20;;
19235;SDS011;9752;54.270;12.470;2023-05-19T06:11:35;15.63;;;13.90;;
19235;SDS011;9752;54.270;12.470;2023-05-19T06:16:38;15.40;;;13.30;;
19235;SDS011;9752;54.270;12.470;2023-05-19T06:21:41;17.87;;;13.90;;
19235;SDS011;9752;54.270;12.470;2023-05-19T06:26:43;15.23;;;13.77;;
19235;SDS011;9752;54.270;12.470;2023-05-19T06:31:45;15.23;;;13.83;;
19235;SDS011;9752;54.270;12.470;2023-05-19T06:36:51;16.20;;;14.47;;
19235;SDS011;9752;54.270;12.470;2023-05-19T06:41:53;15.40;;;13.97;;
19235;SDS011;9752;54.270;12.470;2023-05-19T06:47:23;16.27;;;15.03;;
19235;SDS011;9752;54.270;12.470;2023-05-19T06:52:27;15.67;;;14.07;;
19235;SDS011;9752;54.270;12.470;2023-05-19T06:57:30;16.03;;;14.70;;
19235;SDS011;9752;54.270;12.470;2023-05-19T07:02:32;16.23;;;15.23;;
19235;SDS011;9752;54.270;12.470;2023-05-19T07:07:35;15.23;;;13.97;;
19235;SDS011;9752;54.270;12.470;2023-05-19T07:12:39;15.60;;;14.50;;
19235;SDS011;9752;54.270;12.470;2023-05-19T07:17:41;17.20;;;15.70;;
19235;SDS011;9752;54.270;12.470;2023-05-19T07:22:45;14.90;;;13.80;;
19235;SDS011;9752;54.270;12.470;2023-05-19T07:27:46;15.20;;;14.30;;
19235;SDS011;9752;54.270;12.470;2023-05-19T07:32:48;15.67;;;14.57;;
19235;SDS011;9752;54.270;12.470;2023-05-19T07:37:51;15.63;;;14.20;;
19235;SDS011;9752;54.270;12.470;2023-05-19T07:42:53;17.50;;;14.53;;
19235;SDS011;9752;54.270;12.470;2023-05-19T07:47:54;16.47;;;15.07;;
19235;SDS011;9752;54.270;12.470;2023-05-19T07:52:57;14.67;;;13.80;;
19235;SDS011;9752;54.270;12.470;2023-05-19T07:57:59;15.87;;;14.60;;
19235;SDS011;9752;54.270;12.470;2023-05-19T08:03:01;14.90;;;13.80;;
19235;SDS011;9752;54.270;12.470;2023-05-19T08:08:04;15.40;;;13.93;;
19235;SDS011;9752;54.270;12.470;2023-05-19T08:13:06;15.30;;;13.93;;
19235;SDS011;9752;54.270;12.470;2023-05-19T08:18:08;15.40;;;14.40;;
19235;SDS011;9752;54.270;12.470;2023-05-19T08:23:11;15.17;;;14.03;;
19235;SDS011;9752;54.270;12.470;2023-05-19T08:28:13;15.20;;;13.70;;
19235;SDS011;9752;54.270;12.470;2023-05-19T08:33:15;15.33;;;14.33;;
19235;SDS011;9752;54.270;12.470;2023-05-19T08:38:18;15.70;;;14.37;;
19235;SDS011;9752;54.270;12.470;2023-05-19T08:43:19;15.97;;;14.63;;
19235;SDS011;9752;54.270;12.470;2023-05-19T08:48:22;15.50;;;14.07;;
19235;SDS011;9752;54.270;12.470;2023-05-19T08:53:26;14.50;;;13.57;;
19235;SDS011;9752;54.270;12.470;2023-05-19T08:58:30;14.30;;;13.50;;
19235;SDS011;9752;54.270;12.470;2023-05-19T09:03:33;16.07;;;14.73;;
19235;SDS011;9752;54.270;12.470;2023-05-19T09:08:38;15.80;;;14.60;;
19235;SDS011;9752;54.270;12.470;2023-05-19T09:13:40;15.57;;;14.40;;
19235;SDS011;9752;54.270;12.470;2023-05-19T09:18:52;15.10;;;13.90;;
19235;SDS011;9752;54.270;12.470;2023-05-19T09:23:56;14.53;;;13.53;;
19235;SDS011;9752;54.270;12.470;2023-05-19T09:28:58;15.63;;;14.47;;
19235;SDS011;9752;54.270;12.470;2023-05-19T09:34:00;15.87;;;14.50;;
19235;SDS011;9752;54.270;12.470;2023-05-19T09:39:03;15.90;;;14.70;;
19235;SDS011;9752;54.270;12.470;2023-05-19T09:44:20;15.27;;;14.27;;
19235;SDS011;9752;54.270;12.470;2023-05-19T09:49:23;15.70;;;14.37;;
19235;SDS011;9752;54.270;12.470;2023-05-19T09:54:27;15.87;;;14.40;;
19235;SDS011;9752;54.270;12.470;2023-05-19T09:59:31;17.40;;;15.67;;
19235;SDS011;9752;54.270;12.470;2023-05-19T10:04:33;15.07;;;13.97;;
19235;SDS011;9752;54.270;12.470;2023-05-19T10:09:37;15.20;;;14.07;;
19235;SDS011;9752;54.270;12.470;2023-05-19T10:14:41;14.70;;;13.73;;
19235;SDS011;9752;54.270;12.470;2023-05-19T10:19:43;16.43;;;15.43;;
19235;SDS011;9752;54.270;12.470;2023-05-19T10:24:48;16.87;;;15.63;;
19235;SDS011;9752;54.270;12.470;2023-05-19T10:29:49;15.97;;;14.87;;
19235;SDS011;9752;54.270;12.470;2023-05-19T10:40:24;16.90;;;15.30;;
19235;SDS011;9752;54.270;12.470;2023-05-19T10:45:29;15.67;;;14.57;;
19235;SDS011;9752;54.270;12.470;2023-05-19T10:50:35;16.57;;;14.87;;
19235;SDS011;9752;54.270;12.470;2023-05-19T10:55:45;16.47;;;14.50;;
19235;SDS011;9752;54.270;12.470;2023-05-19T11:00:53;14.87;;;13.87;;
19235;SDS011;9752;54.270;12.470;2023-05-19T11:06:15;15.30;;;14.00;;
19235;SDS011;9752;54.270;12.470;2023-05-19T11:11:19;16.87;;;14.30;;
19235;SDS011;9752;54.270;12.470;2023-05-19T11:16:27;16.40;;;15.17;;
19235;SDS011;9752;54.270;12.470;2023-05-19T11:21:40;13.87;;;12.97;;
19235;SDS011;9752;54.270;12.470;2023-05-19T11:26:48;15.47;;;14.57;;
19235;SDS011;9752;54.270;12.470;2023-05-19T11:31:51;15.83;;;14.80;;
19235;SDS011;9752;54.270;12.470;2023-05-19T11:36:53;15.47;;;14.43;;
19235;SDS011;9752;54.270;12.470;2023-05-19T11:41:56;15.97;;;14.50;;
19235;SDS011;9752;54.270;12.470;2023-05-19T11:46:58;14.63;;;13.73;;
19235;SDS011;9752;54.270;12.470;2023-05-19T11:52:01;15.73;;;14.70;;
19235;SDS011;9752;54.270;12.470;2023-05-19T11:57:06;14.13;;;13.10;;
19235;SDS011;9752;54.270;12.470;2023-05-19T12:02:15;15.47;;;13.93;;
19235;SDS011;9752;54.270;12.470;2023-05-19T12:07:18;14.37;;;13.53;;
19235;SDS011;9752;54.270;12.470;2023-05-19T12:12:23;14.30;;;13.60;;
19235;SDS011;9752;54.270;12.470;2023-05-19T12:17:25;15.07;;;13.97;;
19235;SDS011;9752;54.270;12.470;2023-05-19T12:22:27;14.27;;;13.37;;
19235;SDS011;9752;54.270;12.470;2023-05-19T12:27:33;13.97;;;13.17;;
19235;SDS011;9752;54.270;12.470;2023-05-19T12:32:36;13.80;;;13.10;;
19235;SDS011;9752;54.270;12.470;2023-05-19T12:37:39;14.93;;;13.93;;
19235;SDS011;9752;54.270;12.470;2023-05-19T12:42:44;14.43;;;13.57;;
19235;SDS011;9752;54.270;12.470;2023-05-19T12:47:47;14.10;;;13.30;;
19235;SDS011;9752;54.270;12.470;2023-05-19T12:52:50;13.93;;;13.37;;
19235;SDS011;9752;54.270;12.470;2023-05-19T12:57:53;13.90;;;13.20;;
19235;SDS011;9752;54.270;12.470;2023-05-19T13:02:57;14.00;;;13.30;;
19235;SDS011;9752;54.270;12.470;2023-05-19T13:08:00;14.03;;;13.47;;
19235;SDS011;9752;54.270;12.470;2023-05-19T13:13:06;13.83;;;13.23;;
19235;SDS011;9752;54.270;12.470;2023-05-19T13:18:09;14.23;;;13.60;;
19235;SDS011;9752;54.270;12.470;2023-05-19T13:23:12;13.80;;;13.30;;
19235;SDS011;9752;54.270;12.470;2023-05-19T13:28:16;14.23;;;13.33;;
19235;SDS011;9752;54.270;12.470;2023-05-19T13:33:17;13.90;;;13.30;;
19235;SDS011;9752;54.270;12.470;2023-05-19T13:38:19;13.67;;;13.10;;
19235;SDS011;9752;54.270;12.470;2023-05-19T13:43:22;13.60;;;13.00;;
19235;SDS011;9752;54.270;12.470;2023-05-19T13:48:24;14.20;;;13.30;;
19235;SDS011;9752;54.270;12.470;2023-05-19T13:53:25;13.20;;;12.60;;
19235;SDS011;9752;54.270;12.470;2023-05-19T13:58:30;12.87;;;12.37;;
19235;SDS011;9752;54.270;12.470;2023-05-19T14:03:31;13.37;;;12.57;;
19235;SDS011;9752;54.270;12.470;2023-05-19T14:08:34;13.10;;;12.17;;
19235;SDS011;9752;54.270;12.470;2023-05-19T14:13:37;14.40;;;13.40;;
19235;SDS011;9752;54.270;12.470;2023-05-19T14:18:38;13.77;;;13.17;;
19235;SDS011;9752;54.270;12.470;2023-05-19T14:23:40;14.40;;;13.70;;
19235;SDS011;9752;54.270;12.470;2023-05-19T14:28:43;14.70;;;13.90;;
19235;SDS011;9752;54.270;12.470;2023-05-19T14:33:45;14.83;;;14.13;;
19235;SDS011;9752;54.270;12.470;2023-05-19T14:38:47;15.37;;;14.47;;
19235;SDS011;9752;54.270;12.470;2023-05-19T14:43:50;14.90;;;14.23;;
19235;SDS011;9752;54.270;12.470;2023-05-19T14:48:51;15.17;;;14.03;;
19235;SDS011;9752;54.270;12.470;2023-05-19T14:53:53;14.47;;;13.90;;
19235;SDS011;9752;54.270;12.470;2023-05-19T14:58:56;15.23;;;14.20;;
19235;SDS011;9752;54.270;12.470;2023-05-19T15:03:58;14.47;;;13.77;;
19235;SDS011;9752;54.270;12.470;2023-05-19T15:08:59;14.13;;;13.53;;
19235;SDS011;9752;54.270;12.470;2023-05-19T15:14:02;14.77;;;13.90;;
19235;SDS011;9752;54.270;12.470;2023-05-19T15:19:04;14.30;;;13.40;;
19235;SDS011;9752;54.270;12.470;2023-05-19T15:24:06;17.13;;;16.23;;
19235;SDS011;9752;54.270;12.470;2023-05-19T15:29:09;14.33;;;13.50;;
19235;SDS011;9752;54.270;12.470;2023-05-19T15:34:10;14.87;;;14.17;;
19235;SDS011;9752;54.270;12.470;2023-05-19T15:39:12;13.67;;;13.03;;
19235;SDS011;9752;54.270;12.470;2023-05-19T15:44:15;20.40;;;18.83;;
19235;SDS011;9752;54.270;12.470;2023-05-19T15:49:17;26.17;;;24.10;;
19235;SDS011;9752;54.270;12.470;2023-05-19T15:54:19;15.60;;;14.70;;
19235;SDS011;9752;54.270;12.470;2023-05-19T15:59:22;13.47;;;12.93;;
19235;SDS011;9752;54.270;12.470;2023-05-19T16:04:23;13.97;;;13.03;;
19235;SDS011;9752;54.270;12.470;2023-05-19T16:09:25;14.10;;;13.13;;
19235;SDS011;9752;54.270;12.470;2023-05-19T16:14:28;13.73;;;13.17;;
19235;SDS011;9752;54.270;12.470;2023-05-19T16:19:35;13.50;;;12.90;;
19235;SDS011;9752;54.270;12.470;2023-05-19T16:24:37;13.77;;;13.07;;
19235;SDS011;9752;54.270;12.470;2023-05-19T16:29:40;13.53;;;12.90;;
19235;SDS011;9752;54.270;12.470;2023-05-19T16:34:41;13.70;;;13.20;;
19235;SDS011;9752;54.270;12.470;2023-05-19T16:39:43;14.03;;;13.50;;
19235;SDS011;9752;54.270;12.470;2023-05-19T16:44:48;13.70;;;13.20;;
19235;SDS011;9752;54.270;12.470;2023-05-19T16:49:50;13.83;;;13.30;;
19235;SDS011;9752;54.270;12.470;2023-05-19T16:54:52;14.20;;;13.60;;
19235;SDS011;9752;54.270;12.470;2023-05-19T16:59:55;14.10;;;13.50;;
19235;SDS011;9752;54.270;12.470;2023-05-19T17:04:56;14.00;;;13.40;;
19235;SDS011;9752;54.270;12.470;2023-05-19T17:09:58;13.60;;;12.90;;
19235;SDS011;9752;54.270;12.470;2023-05-19T17:15:01;13.23;;;12.23;;
19235;SDS011;9752;54.270;12.470;2023-05-19T17:20:04;15.00;;;13.93;;
19235;SDS011;9752;54.270;12.470;2023-05-19T17:25:07;13.10;;;12.60;;
19235;SDS011;9752;54.270;12.470;2023-05-19T17:30:11;13.07;;;12.57;;
19235;SDS011;9752;54.270;12.470;2023-05-19T17:35:13;13.27;;;12.77;;
19235;SDS011;9752;54.270;12.470;2023-05-19T17:40:15;14.00;;;13.27;;
19235;SDS011;9752;54.270;12.470;2023-05-19T17:45:18;13.90;;;13.10;;
19235;SDS011;9752;54.270;12.470;2023-05-19T17:50:20;13.40;;;12.80;;
19235;SDS011;9752;54.270;12.470;2023-05-19T17:55:22;13.73;;;13.10;;
19235;SDS011;9752;54.270;12.470;2023-05-19T18:00:30;12.73;;;12.13;;
19235;SDS011;9752;54.270;12.470;2023-05-19T18:05:32;13.40;;;12.77;;
19235;SDS011;9752;54.270;12.470;2023-05-19T18:10:35;13.40;;;12.80;;
19235;SDS011;9752;54.270;12.470;2023-05-19T18:15:39;13.60;;;13.00;;
19235;SDS011;9752;54.270;12.470;2023-05-19T18:20:41;13.77;;;13.07;;
19235;SDS011;9752;54.270;12.470;2023-05-19T18:25:47;13.77;;;13.23;;
19235;SDS011;9752;54.270;12.470;2023-05-19T18:30:58;13.80;;;13.23;;
19235;SDS011;9752;54.270;12.470;2023-05-19T18:36:00;13.70;;;12.93;;
19235;SDS011;9752;54.270;12.470;2023-05-19T18:41:02;13.03;;;12.43;;
19235;SDS011;9752;54.270;12.470;2023-05-19T18:46:07;12.80;;;12.20;;
19235;SDS011;9752;54.270;12.470;2023-05-19T18:51:09;13.13;;;12.53;;
19235;SDS011;9752;54.270;12.470;2023-05-19T18:56:13;12.77;;;12.10;;
19235;SDS011;9752;54.270;12.470;2023-05-19T19:01:24;12.30;;;11.90;;
19235;SDS011;9752;54.270;12.470;2023-05-19T19:06:26;12.10;;;11.60;;
19235;SDS011;9752;54.270;12.470;2023-05-19T19:11:28;12.23;;;11.80;;
19235;SDS011;9752;54.270;12.470;2023-05-19T19:16:31;12.07;;;11.60;;
19235;SDS011;9752;54.270;12.470;2023-05-19T19:21:33;11.90;;;11.40;;
19235;SDS011;9752;54.270;12.470;2023-05-19T19:26:34;12.33;;;11.60;;
19235;SDS011;9752;54.270;12.470;2023-05-19T19:31:38;12.17;;;11.67;;
19235;SDS011;9752;54.270;12.470;2023-05-19T19:36:40;12.50;;;11.97;;
19235;SDS011;9752;54.270;12.470;2023-05-19T19:41:42;12.40;;;11.90;;
19235;SDS011;9752;54.270;12.470;2023-05-19T19:46:46;12.77;;;12.30;;
19235;SDS011;9752;54.270;12.470;2023-05-19T19:51:47;12.83;;;12.23;;
19235;SDS011;9752;54.270;12.470;2023-05-19T19:56:49;12.87;;;12.37;;
19235;SDS011;9752;54.270;12.470;2023-05-19T20:01:52;13.00;;;12.40;;
19235;SDS011;9752;54.270;12.470;2023-05-19T20:06:54;12.07;;;11.43;;
19235;SDS011;9752;54.270;12.470;2023-05-19T20:11:56;12.90;;;12.40;;
19235;SDS011;9752;54.270;12.470;2023-05-19T20:16:59;13.07;;;12.57;;
19235;SDS011;9752;54.270;12.470;2023-05-19T20:22:02;12.97;;;12.43;;
19235;SDS011;9752;54.270;12.470;2023-05-19T20:27:04;13.43;;;12.83;;
19235;SDS011;9752;54.270;12.470;2023-05-19T20:32:07;13.57;;;13.03;;
19235;SDS011;9752;54.270;12.470;2023-05-19T20:37:10;14.23;;;13.50;;
19235;SDS011;9752;54.270;12.470;2023-05-19T20:42:12;13.93;;;13.40;;
19235;SDS011;9752;54.270;12.470;2023-05-19T20:47:16;14.97;;;14.20;;
19235;SDS011;9752;54.270;12.470;2023-05-19T20:52:18;14.77;;;14.17;;
19235;SDS011;9752;54.270;12.470;2023-05-19T20:57:20;14.63;;;13.83;;
19235;SDS011;9752;54.270;12.470;2023-05-19T21:02:23;14.10;;;13.50;;
19235;SDS011;9752;54.270;12.470;2023-05-19T21:07:25;13.80;;;13.27;;
19235;SDS011;9752;54.270;12.470;2023-05-19T21:12:26;14.97;;;14.17;;
19235;SDS011;9752;54.270;12.470;2023-05-19T21:17:34;15.07;;;14.00;;
19235;SDS011;9752;54.270;12.470;2023-05-19T21:22:36;14.70;;;13.90;;
19235;SDS011;9752;54.270;12.470;2023-05-19T21:27:37;14.53;;;13.73;;
19235;SDS011;9752;54.270;12.470;2023-05-19T21:32:41;14.00;;;13.30;;
19235;SDS011;9752;54.270;12.470;2023-05-19T21:37:42;13.83;;;13.20;;
19235;SDS011;9752;54.270;12.470;2023-05-19T21:42:44;13.70;;;12.97;;
19235;SDS011;9752;54.270;12.470;2023-05-19T21:47:47;13.60;;;13.00;;
19235;SDS011;9752;54.270;12.470;2023-05-19T21:52:49;12.63;;;12.03;;
19235;SDS011;9752;54.270;12.470;2023-05-19T21:57:51;11.67;;;11.17;;
19235;SDS011;9752;54.270;12.470;2023-05-19T22:02:54;10.90;;;10.50;;
19235;SDS011;9752;54.270;12.470;2023-05-19T22:07:55;10.80;;;10.20;;
19235;SDS011;9752;54.270;12.470;2023-05-19T22:12:57;10.00;;;9.50;;
19235;SDS011;9752;54.270;12.470;2023-05-19T22:18:01;9.60;;;9.20;;
19235;SDS011;9752;54.270;12.470;2023-05-19T22:23:02;9.30;;;8.80;;
19235;SDS011;9752;54.270;12.470;2023-05-19T22:28:04;8.53;;;7.90;;
19235;SDS011;9752;54.270;12.470;2023-05-19T22:33:08;8.67;;;7.97;;
19235;SDS011;9752;54.270;12.470;2023-05-19T22:38:12;8.53;;;7.73;;
19235;SDS011;9752;54.270;12.470;2023-05-19T22:43:13;8.27;;;7.80;;
19235;SDS011;9752;54.270;12.470;2023-05-19T22:48:16;8.83;;;8.27;;
19235;SDS011;9752;54.270;12.470;2023-05-19T22:53:18;7.60;;;7.20;;
19235;SDS011;9752;54.270;12.470;2023-05-19T22:58:20;7.40;;;6.90;;
19235;SDS011;9752;54.270;12.470;2023-05-19T23:03:23;7.07;;;6.67;;
19235;SDS011;9752;54.270;12.470;2023-05-19T23:08:25;7.43;;;6.93;;
19235;SDS011;9752;54.270;12.470;2023-05-19T23:13:26;8.10;;;7.60;;
19235;SDS011;9752;54.270;12.470;2023-05-19T23:18:30;8.27;;;7.77;;
19235;SDS011;9752;54.270;12.470;2023-05-19T23:23:31;8.07;;;7.67;;
19235;SDS011;9752;54.270;12.470;2023-05-19T23:28:35;8.50;;;8.10;;
19235;SDS011;9752;54.270;12.470;2023-05-19T23:33:38;7.17;;;6.77;;
19235;SDS011;9752;54.270;12.470;2023-05-19T23:38:40;6.90;;;6.50;;
19235;SDS011;9752;54.270;12.470;2023-05-19T23:43:42;7.20;;;6.80;;
19235;SDS011;9752;54.270;12.470;2023-05-19T23:48:45;7.00;;;6.50;;
19235;SDS011;9752;54.270;12.470;2023-05-19T23:53:47;6.70;;;6.30;;
19235;SDS011;9752;54.270;12.470;2023-05-19T23:58:49;5.80;;;5.50;;
